createdAt,value
2023-04-17T00:01:40.003Z,9.70
2023-04-17T00:04:11.571Z,9.80
2023-04-17T00:06:43.701Z,9.80
2023-04-17T00:09:15.803Z,9.70
2023-04-17T00:11:45.403Z,9.70
2023-04-17T00:14:17.494Z,9.70
2023-04-17T00:16:47.015Z,9.70
2023-04-17T00:19:15.777Z,9.70
2023-04-17T00:21:44.755Z,9.70
2023-04-17T00:24:16.689Z,9.70
2023-04-17T00:26:45.594Z,9.70
2023-04-17T00:29:14.860Z,9.60
2023-04-17T00:31:48.578Z,9.60
2023-04-17T00:34:17.467Z,9.60
2023-04-17T00:36:46.400Z,9.60
2023-04-17T00:39:17.880Z,9.60
2023-04-17T00:41:48.153Z,9.60
2023-04-17T00:44:19.830Z,9.60
2023-04-17T00:46:49.166Z,9.60
2023-04-17T00:49:19.024Z,9.60
2023-04-17T00:51:50.800Z,9.60
2023-04-17T00:54:23.590Z,9.70
2023-04-17T00:56:56.747Z,9.60
2023-04-17T00:59:27.281Z,9.60
2023-04-17T01:01:56.135Z,9.60
2023-04-17T01:04:26.725Z,9.60
2023-04-17T01:06:57.027Z,9.50
2023-04-17T01:09:28.684Z,9.50
2023-04-17T01:12:18.436Z,9.60
2023-04-17T01:14:47.737Z,9.60
2023-04-17T01:17:19.296Z,9.60
2023-04-17T01:19:50.369Z,9.50
2023-04-17T01:22:20.245Z,9.50
2023-04-17T01:24:55.600Z,9.50
2023-04-17T01:27:27.044Z,9.40
2023-04-17T01:29:57.595Z,9.40
2023-04-17T01:32:26.729Z,9.40
2023-04-17T01:34:55.444Z,9.40
2023-04-17T01:37:24.077Z,9.30
2023-04-17T01:40:00.395Z,9.30
2023-04-17T01:42:29.845Z,9.30
2023-04-17T01:45:00.675Z,9.30
2023-04-17T01:47:30.628Z,9.30
2023-04-17T01:50:01.827Z,9.30
2023-04-17T01:52:31.076Z,9.30
2023-04-17T01:55:07.459Z,9.20
2023-04-17T01:57:39.299Z,9.20
2023-04-17T02:00:11.020Z,9.20
2023-04-17T02:02:45.434Z,9.20
2023-04-17T02:05:14.661Z,9.30
2023-04-17T02:07:45.542Z,9.30
2023-04-17T02:10:16.303Z,9.20
2023-04-17T02:12:45.906Z,9.20
2023-04-17T02:15:15.351Z,9.20
2023-04-17T02:17:44.495Z,9.20
2023-04-17T02:20:15.654Z,9.20
2023-04-17T02:22:45.133Z,9.10
2023-04-17T02:25:16.094Z,9.10
2023-04-17T02:27:44.705Z,9.10
2023-04-17T02:30:16.936Z,9.10
2023-04-17T02:32:46.390Z,9.00
2023-04-17T02:35:15.621Z,9.00
2023-04-17T02:37:45.584Z,9.00
2023-04-17T02:40:17.626Z,8.90
2023-04-17T02:42:47.330Z,8.90
2023-04-17T02:45:16.812Z,8.90
2023-04-17T02:47:47.349Z,8.90
2023-04-17T02:50:16.922Z,8.80
2023-04-17T02:53:15.874Z,8.80
2023-04-17T02:55:46.076Z,8.80
2023-04-17T02:58:18.796Z,8.90
2023-04-17T03:00:48.520Z,8.90
2023-04-17T03:03:19.989Z,8.90
2023-04-17T03:05:48.827Z,8.80
2023-04-17T03:08:18.691Z,8.80
2023-04-17T03:10:51.192Z,8.90
2023-04-17T03:13:20.198Z,8.90
2023-04-17T03:15:48.941Z,9.00
2023-04-17T03:18:18.804Z,9.00
2023-04-17T03:20:47.886Z,9.00
2023-04-17T03:23:17.591Z,9.00
2023-04-17T03:25:47.084Z,9.00
2023-04-17T03:28:24.621Z,9.00
2023-04-17T03:30:54.985Z,9.00
2023-04-17T03:33:25.372Z,9.00
2023-04-17T03:35:56.050Z,9.00
2023-04-17T03:38:26.560Z,9.00
2023-04-17T03:40:56.698Z,9.00
2023-04-17T03:43:33.507Z,9.00
2023-04-17T03:46:02.080Z,9.00
2023-04-17T03:48:33.400Z,9.00
2023-04-17T03:51:02.462Z,9.00
2023-04-17T03:53:32.449Z,9.00
2023-04-17T03:56:04.332Z,9.00
2023-04-17T03:58:40.587Z,9.00
2023-04-17T04:01:12.851Z,9.00
2023-04-17T04:03:53.527Z,9.00
2023-04-17T04:06:23.604Z,9.00
2023-04-17T04:08:55.117Z,8.90
2023-04-17T04:11:24.786Z,9.00
2023-04-17T04:13:55.587Z,9.00
2023-04-17T04:16:25.087Z,9.00
2023-04-17T04:19:01.052Z,9.00
2023-04-17T04:21:34.142Z,9.00
2023-04-17T04:24:11.747Z,9.00
2023-04-17T04:26:42.413Z,9.00
2023-04-17T04:29:14.090Z,9.00
2023-04-17T04:31:54.684Z,8.90
2023-04-17T04:34:30.516Z,8.90
2023-04-17T04:37:00.254Z,9.00
2023-04-17T04:39:38.103Z,9.00
2023-04-17T04:42:11.838Z,9.00
2023-04-17T04:44:58.757Z,9.00
2023-04-17T04:47:33.477Z,9.00
2023-04-17T04:50:03.811Z,9.00
2023-04-17T04:52:33.298Z,9.00
2023-04-17T04:55:10.218Z,9.00
2023-04-17T04:57:47.263Z,9.00
2023-04-17T05:00:20.574Z,9.00
2023-04-17T05:02:53.272Z,9.00
2023-04-17T05:05:28.346Z,9.00
2023-04-17T05:07:58.348Z,9.00
2023-04-17T05:10:32.873Z,9.00
2023-04-17T05:13:06.969Z,9.00
2023-04-17T05:15:37.742Z,9.00
2023-04-17T05:18:07.735Z,9.00
2023-04-17T05:20:37.903Z,9.00
2023-04-17T05:23:07.289Z,9.10
2023-04-17T05:25:35.886Z,9.00
2023-04-17T05:28:09.423Z,9.10
2023-04-17T05:30:41.701Z,9.10
2023-04-17T05:33:19.517Z,9.10
2023-04-17T05:35:56.097Z,9.10
2023-04-17T05:38:26.804Z,9.20
2023-04-17T05:41:00.439Z,9.20
2023-04-17T05:43:29.579Z,9.20
2023-04-17T05:46:03.195Z,9.20
2023-04-17T05:48:34.847Z,9.20
2023-04-17T05:51:08.598Z,9.20
2023-04-17T05:53:39.855Z,9.30
2023-04-17T05:56:11.969Z,9.20
2023-04-17T05:58:41.332Z,9.20
2023-04-17T06:01:20.944Z,9.20
2023-04-17T06:03:53.335Z,9.30
2023-04-17T06:06:27.563Z,9.30
2023-04-17T06:08:57.961Z,9.30
2023-04-17T06:11:27.581Z,9.30
2023-04-17T06:13:57.912Z,9.30
2023-04-17T06:16:28.795Z,9.40
2023-04-17T06:18:57.777Z,9.30
2023-04-17T06:21:26.802Z,9.40
2023-04-17T06:23:56.086Z,9.40
2023-04-17T06:26:27.362Z,9.30
2023-04-17T06:28:56.277Z,9.40
2023-04-17T06:31:30.406Z,9.40
2023-04-17T06:34:00.308Z,9.40
2023-04-17T06:36:35.818Z,9.50
2023-04-17T06:39:06.466Z,9.50
2023-04-17T06:41:37.519Z,9.40
2023-04-17T06:44:08.234Z,9.50
2023-04-17T06:46:53.978Z,9.50
2023-04-17T06:49:27.643Z,9.50
2023-04-17T06:51:56.682Z,9.60
2023-04-17T06:54:26.105Z,9.60
2023-04-17T06:56:58.941Z,9.60
2023-04-17T06:59:34.252Z,9.70
2023-04-17T07:02:05.761Z,9.70
2023-04-17T07:04:35.251Z,9.70
2023-04-17T07:07:04.065Z,9.80
2023-04-17T07:09:33.608Z,9.90
2023-04-17T07:12:07.009Z,10.00
2023-04-17T07:14:36.979Z,10.00
2023-04-17T07:17:06.773Z,10.00
2023-04-17T07:19:37.228Z,10.00
2023-04-17T07:22:06.804Z,10.00
2023-04-17T07:24:38.927Z,10.10
2023-04-17T07:27:08.298Z,10.20
2023-04-17T07:29:36.933Z,10.20
2023-04-17T07:32:07.927Z,10.10
2023-04-17T07:34:41.492Z,10.10
2023-04-17T07:37:10.435Z,10.20
2023-04-17T07:39:39.390Z,10.20
2023-04-17T07:42:09.334Z,10.30
2023-04-17T07:44:38.246Z,10.30
2023-04-17T07:47:09.093Z,10.30
2023-04-17T07:49:41.031Z,10.30
2023-04-17T07:52:12.717Z,10.40
2023-04-17T07:54:42.190Z,10.40
2023-04-17T07:57:12.669Z,10.40
2023-04-17T07:59:42.673Z,10.30
2023-04-17T08:02:13.612Z,10.30
2023-04-17T08:04:44.797Z,10.30
2023-04-17T08:07:15.178Z,10.40
2023-04-17T08:09:46.210Z,10.40
2023-04-17T08:12:15.268Z,10.40
2023-04-17T08:14:45.539Z,10.40
2023-04-17T08:17:18.365Z,10.40
2023-04-17T08:19:50.400Z,10.50
2023-04-17T08:22:22.206Z,10.50
2023-04-17T08:24:50.773Z,10.50
2023-04-17T08:27:19.668Z,10.60
2023-04-17T08:29:49.560Z,10.60
2023-04-17T08:32:20.869Z,10.60
2023-04-17T08:34:52.912Z,10.70
2023-04-17T08:37:23.818Z,10.70
2023-04-17T08:39:54.085Z,10.80
2023-04-17T08:42:27.027Z,10.80
2023-04-17T08:45:02.224Z,10.90
2023-04-17T08:47:32.860Z,11.00
2023-04-17T08:50:04.501Z,11.10
2023-04-17T08:52:34.602Z,11.10
2023-04-17T08:55:03.935Z,11.10
2023-04-17T08:57:33.127Z,11.10
2023-04-17T09:00:07.247Z,11.10
2023-04-17T09:02:55.008Z,11.00
2023-04-17T09:05:25.261Z,11.00
2023-04-17T09:08:21.177Z,11.10
2023-04-17T09:10:53.645Z,11.10
2023-04-17T09:13:25.559Z,11.10
2023-04-17T09:16:09.907Z,11.10
2023-04-17T09:18:42.857Z,11.10
2023-04-17T09:21:12.471Z,11.10
2023-04-17T09:23:55.184Z,11.10
2023-04-17T09:26:26.544Z,11.10
2023-04-17T09:29:09.134Z,11.10
2023-04-17T09:31:40.852Z,11.10
2023-04-17T09:34:14.473Z,11.10
2023-04-17T09:36:45.937Z,11.20
2023-04-17T09:39:21.215Z,11.30
2023-04-17T09:41:49.961Z,11.40
2023-04-17T09:44:28.331Z,11.50
2023-04-17T09:46:59.107Z,11.60
2023-04-17T09:49:37.148Z,11.80
2023-04-17T09:52:08.245Z,12.00
2023-04-17T09:54:40.638Z,12.10
2023-04-17T09:57:11.118Z,12.30
2023-04-17T09:59:42.532Z,12.50
2023-04-17T10:02:16.979Z,12.70
2023-04-17T10:04:49.227Z,12.80
2023-04-17T10:07:22.454Z,12.80
2023-04-17T10:09:52.142Z,12.90
2023-04-17T10:12:22.683Z,13.00
2023-04-17T10:14:53.594Z,13.30
2023-04-17T10:17:29.040Z,13.50
2023-04-17T10:20:35.681Z,13.60
2023-04-17T10:23:34.881Z,13.70
2023-04-17T10:26:47.294Z,13.90
2023-04-17T10:29:16.072Z,13.90
2023-04-17T10:32:27.371Z,13.90
2023-04-17T10:35:03.977Z,14.00
2023-04-17T10:38:06.733Z,13.90
2023-04-17T10:40:38.318Z,13.90
2023-04-17T10:43:15.136Z,14.00
2023-04-17T10:46:04.978Z,14.10
2023-04-17T10:48:40.889Z,14.40
2023-04-17T10:51:42.842Z,14.50
2023-04-17T10:54:13.723Z,14.50
2023-04-17T10:56:48.417Z,14.70
2023-04-17T10:59:23.246Z,14.60
2023-04-17T11:02:05.176Z,14.60
2023-04-17T11:04:35.350Z,14.70
2023-04-17T11:07:05.729Z,14.70
2023-04-17T11:09:42.841Z,14.30
2023-04-17T11:12:15.769Z,14.00
2023-04-17T11:14:49.733Z,13.80
2023-04-17T11:17:24.546Z,13.50
2023-04-17T11:19:53.396Z,13.20
2023-04-17T11:22:25.471Z,12.90
2023-04-17T11:24:53.959Z,12.80
2023-04-17T11:27:24.973Z,12.60
2023-04-17T11:29:54.025Z,12.50
2023-04-17T11:32:23.225Z,12.50
2023-04-17T11:34:56.901Z,12.50
2023-04-17T11:37:27.157Z,12.40
2023-04-17T11:40:07.531Z,12.50
2023-04-17T11:42:36.551Z,12.50
2023-04-17T11:45:08.636Z,12.60
2023-04-17T11:47:37.761Z,12.60
2023-04-17T11:50:09.056Z,12.70
2023-04-17T11:52:40.010Z,12.70
2023-04-17T11:55:11.356Z,12.70
2023-04-17T11:57:47.437Z,12.80
2023-04-17T12:00:27.618Z,13.00
2023-04-17T12:02:58.758Z,13.20
2023-04-17T12:05:30.394Z,13.30
2023-04-17T12:08:17.154Z,13.50
2023-04-17T12:10:47.658Z,13.70
2023-04-17T12:13:16.330Z,13.90
2023-04-17T12:15:47.042Z,14.20
2023-04-17T12:18:16.690Z,14.30
2023-04-17T12:20:46.591Z,14.30
2023-04-17T12:23:16.844Z,14.00
2023-04-17T12:25:46.500Z,13.90
2023-04-17T12:28:16.765Z,13.90
2023-04-17T12:30:45.719Z,13.90
2023-04-17T12:33:15.510Z,13.90
2023-04-17T12:35:44.763Z,14.00
2023-04-17T12:38:18.155Z,14.00
2023-04-17T12:40:47.431Z,14.00
2023-04-17T12:43:17.856Z,13.80
2023-04-17T12:45:48.559Z,13.90
2023-04-17T12:48:17.464Z,13.80
2023-04-17T12:50:46.590Z,13.90
2023-04-17T12:53:19.946Z,13.90
2023-04-17T12:55:49.868Z,13.90
2023-04-17T12:58:20.232Z,13.90
2023-04-17T13:00:52.392Z,13.90
2023-04-17T13:03:23.067Z,14.00
2023-04-17T13:05:54.965Z,14.00
2023-04-17T13:08:28.591Z,14.10
2023-04-17T13:11:00.284Z,14.20
2023-04-17T13:13:29.813Z,14.80
2023-04-17T13:16:00.063Z,15.80
2023-04-17T13:18:29.297Z,15.60
2023-04-17T13:21:00.939Z,15.30
2023-04-17T13:23:32.714Z,15.10
2023-04-17T13:26:01.494Z,15.00
2023-04-17T13:28:30.390Z,15.00
2023-04-17T13:30:59.317Z,14.90
2023-04-17T13:33:28.164Z,14.60
2023-04-17T13:35:57.690Z,14.40
2023-04-17T13:38:28.057Z,14.40
2023-04-17T13:41:00.114Z,14.40
2023-04-17T13:43:29.719Z,14.50
2023-04-17T13:46:01.031Z,14.60
2023-04-17T13:48:30.286Z,14.60
2023-04-17T13:50:59.914Z,14.60
2023-04-17T13:53:32.194Z,14.70
2023-04-17T13:56:02.722Z,14.60
2023-04-17T13:58:35.156Z,14.60
2023-04-17T14:01:04.610Z,14.60
2023-04-17T14:03:38.981Z,14.50
2023-04-17T14:06:09.321Z,14.50
2023-04-17T14:08:41.758Z,14.50
2023-04-17T14:11:17.769Z,14.50
2023-04-17T14:13:46.332Z,14.30
2023-04-17T14:16:15.852Z,14.20
2023-04-17T14:18:45.232Z,14.30
2023-04-17T14:21:15.425Z,14.40
2023-04-17T14:23:44.980Z,14.60
2023-04-17T14:26:16.924Z,14.50
2023-04-17T14:28:46.563Z,14.40
2023-04-17T14:31:17.087Z,14.70
2023-04-17T14:33:47.321Z,15.70
2023-04-17T14:36:17.544Z,15.90
2023-04-17T14:38:51.358Z,16.70
2023-04-17T14:41:22.720Z,17.70
2023-04-17T14:43:51.431Z,17.60
2023-04-17T14:46:22.301Z,17.60
2023-04-17T14:48:55.770Z,17.30
2023-04-17T14:51:25.740Z,17.20
2023-04-17T14:53:57.458Z,16.80
2023-04-17T14:56:31.861Z,16.60
2023-04-17T14:59:01.962Z,16.30
2023-04-17T15:01:38.356Z,16.10
2023-04-17T15:04:11.509Z,16.00
2023-04-17T15:06:41.251Z,15.90
2023-04-17T15:09:11.699Z,15.80
2023-04-17T15:11:42.948Z,15.40
2023-04-17T15:14:13.325Z,14.90
2023-04-17T15:16:43.660Z,14.70
2023-04-17T15:19:15.501Z,14.60
2023-04-17T15:21:44.602Z,14.50
2023-04-17T15:24:19.221Z,14.50
2023-04-17T15:26:51.812Z,14.20
2023-04-17T15:29:23.097Z,13.90
2023-04-17T15:31:57.766Z,13.80
2023-04-17T15:34:27.145Z,13.80
2023-04-17T15:36:55.976Z,13.90
2023-04-17T15:39:26.623Z,14.00
2023-04-17T15:42:01.682Z,13.90
2023-04-17T15:44:30.745Z,13.80
2023-04-17T15:47:01.434Z,13.80
2023-04-17T15:49:31.253Z,13.70
2023-04-17T15:52:01.279Z,13.60
2023-04-17T15:54:30.444Z,13.50
2023-04-17T15:57:02.014Z,13.50
2023-04-17T15:59:32.124Z,13.50
2023-04-17T16:02:03.209Z,13.60
2023-04-17T16:04:34.039Z,13.60
2023-04-17T16:07:06.621Z,13.50
2023-04-17T16:09:36.119Z,13.50
2023-04-17T16:12:10.648Z,13.50
2023-04-17T16:14:40.098Z,13.40
2023-04-17T16:17:10.318Z,13.40
2023-04-17T16:19:41.879Z,13.40
2023-04-17T16:22:10.622Z,13.30
2023-04-17T16:24:40.837Z,13.30
2023-04-17T16:27:11.217Z,13.10
2023-04-17T16:29:40.602Z,13.00
2023-04-17T16:32:09.584Z,12.90
2023-04-17T16:34:40.545Z,12.90
2023-04-17T16:37:11.823Z,12.80
2023-04-17T16:39:41.440Z,12.80
2023-04-17T16:42:14.440Z,12.80
2023-04-17T16:44:43.654Z,12.80
2023-04-17T16:47:14.351Z,12.60
2023-04-17T16:49:43.500Z,12.50
2023-04-17T16:52:13.131Z,12.40
2023-04-17T16:54:43.202Z,12.40
2023-04-17T16:57:13.245Z,12.30
2023-04-17T16:59:42.566Z,12.20
2023-04-17T17:02:10.974Z,12.20
2023-04-17T17:04:45.568Z,12.30
2023-04-17T17:07:16.263Z,12.30
2023-04-17T17:09:50.174Z,12.10
2023-04-17T17:12:24.238Z,12.10
2023-04-17T17:14:53.816Z,12.10
2023-04-17T17:17:22.870Z,12.00
2023-04-17T17:19:54.401Z,12.00
2023-04-17T17:22:28.269Z,12.00
2023-04-17T17:24:59.715Z,11.90
2023-04-17T17:27:32.013Z,11.90
2023-04-17T17:30:01.261Z,11.80
2023-04-17T17:32:33.314Z,11.80
2023-04-17T17:35:04.106Z,11.70
2023-04-17T17:37:32.737Z,11.70
2023-04-17T17:40:03.691Z,11.60
2023-04-17T17:42:38.237Z,11.50
2023-04-17T17:45:09.168Z,11.50
2023-04-17T17:47:38.660Z,11.50
2023-04-17T17:50:10.765Z,11.50
2023-04-17T17:52:39.692Z,11.50
2023-04-17T17:55:12.130Z,11.50
2023-04-17T17:57:49.467Z,11.40
2023-04-17T18:00:21.953Z,11.40
2023-04-17T18:02:52.259Z,11.30
2023-04-17T18:05:22.560Z,11.20
2023-04-17T18:07:52.162Z,11.20
2023-04-17T18:13:07.376Z,11.10
2023-04-17T18:15:37.844Z,11.00
2023-04-17T18:18:08.460Z,11.00
2023-04-17T18:20:41.016Z,11.00
2023-04-17T18:23:13.564Z,11.00
2023-04-17T18:25:42.638Z,11.00
2023-04-17T18:28:14.138Z,10.90
2023-04-17T18:30:44.975Z,10.90
2023-04-17T18:33:16.395Z,10.90
2023-04-17T18:35:45.381Z,10.80
2023-04-17T18:38:14.717Z,10.80
2023-04-17T18:40:45.166Z,10.80
2023-04-17T18:43:15.579Z,10.70
2023-04-17T18:45:47.893Z,10.70
2023-04-17T18:48:18.839Z,10.60
2023-04-17T18:50:48.438Z,10.60
2023-04-17T18:53:18.266Z,10.60
2023-04-17T18:55:48.238Z,10.50
2023-04-17T18:58:18.370Z,10.40
2023-04-17T19:00:48.027Z,10.40
2023-04-17T19:03:17.668Z,10.30
2023-04-17T19:05:47.051Z,10.30
2023-04-17T19:08:16.719Z,10.20
2023-04-17T19:10:49.470Z,10.20
2023-04-17T19:13:22.036Z,10.20
2023-04-17T19:15:53.604Z,10.20
2023-04-17T19:18:24.304Z,10.20
2023-04-17T19:20:53.900Z,10.10
2023-04-17T19:23:22.690Z,10.10
2023-04-17T19:25:54.763Z,10.00
2023-04-17T19:28:27.137Z,10.00
2023-04-17T19:30:56.352Z,10.00
2023-04-17T19:33:29.483Z,10.00
2023-04-17T19:35:59.885Z,9.90
2023-04-17T19:38:29.998Z,9.90
2023-04-17T19:41:15.518Z,9.80
2023-04-17T19:43:46.320Z,9.80
2023-04-17T19:46:17.614Z,9.70
2023-04-17T19:48:48.278Z,9.70
2023-04-17T19:51:17.895Z,9.60
2023-04-17T19:53:51.985Z,9.60
2023-04-17T19:56:21.092Z,9.60
2023-04-17T19:58:53.022Z,9.50
2023-04-17T20:01:21.987Z,9.50
2023-04-17T20:03:51.819Z,9.50
2023-04-17T20:06:21.369Z,9.40
2023-04-17T20:08:54.092Z,9.40
2023-04-17T20:11:26.799Z,9.40
2023-04-17T20:13:58.224Z,9.40
2023-04-17T20:16:28.984Z,9.30
2023-04-17T20:19:02.168Z,9.40
2023-04-17T20:21:32.181Z,9.40
2023-04-17T20:24:00.661Z,9.40
2023-04-17T20:26:30.596Z,9.40
2023-04-17T20:29:01.408Z,9.30
2023-04-17T20:31:34.109Z,9.40
2023-04-17T20:34:04.690Z,9.40
2023-04-17T20:36:33.216Z,9.40
2023-04-17T20:39:03.391Z,9.40
2023-04-17T20:41:36.791Z,9.40
2023-04-17T20:44:10.050Z,9.40
2023-04-17T20:46:44.887Z,9.40
2023-04-17T20:49:13.545Z,9.40
2023-04-17T20:51:42.365Z,9.40
2023-04-17T20:54:12.413Z,9.40
2023-04-17T20:56:41.706Z,9.50
2023-04-17T20:59:13.601Z,9.40
2023-04-17T21:01:44.024Z,9.50
2023-04-17T21:04:13.839Z,9.50
2023-04-17T21:06:43.810Z,9.50
2023-04-17T21:09:14.856Z,9.50
2023-04-17T21:11:44.305Z,9.50
2023-04-17T21:14:15.505Z,9.50
2023-04-17T21:16:45.280Z,9.50
2023-04-17T21:19:16.043Z,9.50
2023-04-17T21:21:47.770Z,9.50
2023-04-17T21:24:18.751Z,9.40
2023-04-17T21:26:49.360Z,9.40
2023-04-17T21:29:21.706Z,9.40
2023-04-17T21:31:50.729Z,9.40
2023-04-17T21:34:21.172Z,9.50
2023-04-17T21:36:52.720Z,9.40
2023-04-17T21:39:22.922Z,9.40
2023-04-17T21:41:52.174Z,9.40
2023-04-17T21:44:25.051Z,9.40
2023-04-17T21:46:58.330Z,9.40
2023-04-17T21:49:27.079Z,9.40
2023-04-17T21:51:56.076Z,9.40
2023-04-17T21:54:27.903Z,9.40
2023-04-17T21:56:56.952Z,9.40
2023-04-17T21:59:27.486Z,9.40
2023-04-17T22:01:56.556Z,9.40
2023-04-17T22:04:27.088Z,9.40
2023-04-17T22:06:57.927Z,9.30
2023-04-17T22:09:28.981Z,9.30
2023-04-17T22:11:59.417Z,9.30
2023-04-17T22:14:29.543Z,9.30
2023-04-17T22:16:58.614Z,9.30
2023-04-17T22:19:27.515Z,9.30
2023-04-17T22:21:56.206Z,9.30
2023-04-17T22:24:25.829Z,9.30
2023-04-17T22:26:55.925Z,9.40
2023-04-17T22:29:24.996Z,9.40
2023-04-17T22:31:56.097Z,9.40
2023-04-17T22:34:25.325Z,9.30
2023-04-17T22:36:54.226Z,9.40
2023-04-17T22:39:24.922Z,9.40
2023-04-17T22:41:57.316Z,9.40
2023-04-17T22:44:28.126Z,9.40
2023-04-17T22:47:00.854Z,9.30
2023-04-17T22:49:31.428Z,9.30
2023-04-17T22:52:03.705Z,9.30
2023-04-17T22:54:32.506Z,9.30
2023-04-17T22:57:02.368Z,9.30
2023-04-17T22:59:30.948Z,9.30
2023-04-17T23:02:01.901Z,9.30
2023-04-17T23:04:33.219Z,9.30
2023-04-17T23:07:02.639Z,9.30
2023-04-17T23:09:31.783Z,9.30
2023-04-17T23:12:00.651Z,9.30
2023-04-17T23:14:30.008Z,9.20
2023-04-17T23:16:58.507Z,9.20
2023-04-17T23:19:29.301Z,9.20
2023-04-17T23:21:59.813Z,9.20
2023-04-17T23:24:35.785Z,9.10
2023-04-17T23:27:04.617Z,9.10
2023-04-17T23:29:35.430Z,9.10
2023-04-17T23:32:04.891Z,9.10
2023-04-17T23:34:38.605Z,9.10
2023-04-17T23:37:07.788Z,9.10
2023-04-17T23:39:37.540Z,9.10
2023-04-17T23:42:08.213Z,9.10
2023-04-17T23:44:39.123Z,9.00
2023-04-17T23:47:10.705Z,9.00
2023-04-17T23:49:41.203Z,9.00
2023-04-17T23:52:11.589Z,9.00
2023-04-17T23:54:42.546Z,8.90
2023-04-17T23:57:11.267Z,8.90
2023-04-17T23:59:40.074Z,8.80
